Agana Heights, GU

1:32 AM ChST on October 23, 2014 (GMT +1000)
Maite | Change Station
CLOSE
Current Station
Personal Weather Station
Location: Maite, GU
Elevation: 140 ft
Nearby Weather Stations
Active Advisory: High Surf Advisory

Elev 140 ft 13.48 °N, 144.76 °E | Updated 3 seconds ago

Clear
Clear
80.2 °F
Feels Like 86 °F
N
4.0
Wind Variable Wind from NNE
Gusts 8.0 mph

Today
High -- | Low -- °F
--% Chance of Precip.
Yesterday
High -- | Low -- °F
Precip. -- in
6:12 AM 5:57 PM
Waning Crescent, 2% visible
Pressure 29.81 in
Visibility 10.0 miles
Clouds Clear
Heat Index 86 °F
Dew Point 76 °F
Humidity 87%
Rainfall 0.00 in
Snow Depth Not available.
UV 0.0 out of 12
Pollen Not available.
Air Quality Not available.
Flu Activity Widespread
METAR PGUM 221454Z 03003KT 10SM CLR 27/24 A2983 RMK AO2 SLP092 T02670244 58006

More Conditions Fewer Conditions

Pressure 29.81 in
Visibility 10.0 miles
Clouds Clear
Heat Index 86 °F
Dew Point 76 °F
Humidity 87%
Rainfall 0.00 in
Snow Depth Not available.
UV 0.0 out of 12
Pollen Not available.
Air Quality Not available.
Flu Activity Widespread
METAR PGUM 221454Z 03003KT 10SM CLR 27/24 A2983 RMK AO2 SLP092 T02670244 58006

More Conditions Fewer Conditions

10-Day Weather Forecast

Almanac

Astronomy

Oct. 23, 2014 Rise Set
Actual Time 6:12 AM ChST 5:57 PM ChST
Civil Twilight 5:51 AM ChST 6:19 PM ChST
Nautical Twilight 5:26 AM ChST 6:44 PM ChST
Astronomical Twilight 5:01 AM ChST 7:09 PM ChST
Moon 5:23 AM ChST (10/23) 5:30 PM ChST (10/23)
Length of Visible Light 12h 28m
Length of Day
11h 44m
Tomorrow will be 0m 41s shorter.
Waning Crescent, 2% of the Moon is Illuminated
Oct 22
Waning Crescent
Oct 23
New
Oct 30
First Quarter
Nov 6
Full
Nov 14
Last Quarter

Community

WunderPhotos

Upload Photos

1,763,949 photos uploaded!

Nearby

Snow Depth

Station Depth Elevation
No new snow has been reported.

Earthquake Activity

City Distance Mag. Time & Date
No recent earthquake activity has been reported nearby.
Minimum magnitude displayed is 2.5.

Coastal Water Temperatures

Place Temperature
No Stations Reporting

Nearby Weather Stations